Time;durP1;ratioP1;P1;durP2;ratioP2;P2;SDS_P1;SDS_P2;PMS_P1;PMS_P2;Temp;Humidity;BMP_temperature;BMP_pressure;BME280_temperature;BME280_humidity;BME280_pressure;Samples;Min_cycle;Max_cycle;Signal;HPM_P1;HPM_P2
2022/03/28 00:01:52;;;;;;;20.95;6.72;;;10.40;93.60;;;;;;5090052;28;20590;-67
2022/03/28 00:04:18;;;;;;;19.92;6.80;;;10.40;93.80;;;;;;5089082;28;20190;-73
2022/03/28 00:06:43;;;;;;;19.83;7.10;;;10.40;93.80;;;;;;5089869;28;20182;-68
2022/03/28 00:09:09;;;;;;;23.08;6.55;;;10.30;93.90;;;;;;5090438;28;20177;-67
2022/03/28 00:11:35;;;;;;;17.40;6.97;;;10.30;94.00;;;;;;5090877;28;20269;-69
2022/03/28 00:14:01;;;;;;;19.65;6.90;;;10.20;94.00;;;;;;5091587;28;20191;-70
2022/03/28 00:16:27;;;;;;;20.95;7.03;;;10.20;94.10;;;;;;5070857;28;20229;-70
2022/03/28 00:18:52;;;;;;;27.10;7.00;;;10.20;94.20;;;;;;5091293;28;20210;-65
2022/03/28 00:21:19;;;;;;;19.40;7.18;;;10.20;94.30;;;;;;5089926;28;20186;-67
2022/03/28 00:23:46;;;;;;;21.75;7.50;;;10.10;94.40;;;;;;5090627;28;20229;-66
2022/03/28 00:26:11;;;;;;;17.65;6.93;;;10.20;94.50;;;;;;5089252;28;20236;-66
2022/03/28 00:28:37;;;;;;;21.25;7.85;;;10.20;94.60;;;;;;5087576;28;20190;-68
2022/03/28 00:31:03;;;;;;;19.65;6.75;;;10.10;94.60;;;;;;5072267;28;20205;-68
2022/03/28 00:33:29;;;;;;;23.42;7.60;;;10.10;94.60;;;;;;5073026;28;20190;-67
2022/03/28 00:35:55;;;;;;;24.42;7.78;;;10.10;94.70;;;;;;5070660;28;20247;-69
2022/03/28 00:38:21;;;;;;;28.85;9.10;;;10.10;94.70;;;;;;5069713;28;20189;-67
2022/03/28 00:40:47;;;;;;;33.90;10.70;;;10.00;94.80;;;;;;5055253;28;20650;-68
2022/03/28 00:43:12;;;;;;;34.90;12.55;;;9.90;94.80;;;;;;5089628;28;20219;-66
2022/03/28 00:45:40;;;;;;;27.27;13.15;;;9.90;94.80;;;;;;5086438;28;20186;-68
2022/03/28 00:48:07;;;;;;;39.63;14.70;;;9.90;94.90;;;;;;5090534;28;20221;-68
2022/03/28 00:50:33;;;;;;;37.90;14.82;;;9.90;95.00;;;;;;5088246;28;20209;-67
2022/03/28 00:53:00;;;;;;;42.83;16.08;;;9.90;95.10;;;;;;5088646;28;20178;-68
2022/03/28 00:55:26;;;;;;;38.22;16.13;;;9.80;95.10;;;;;;5070102;28;20189;-68
2022/03/28 00:57:53;;;;;;;32.88;15.43;;;9.80;95.20;;;;;;5090516;28;20649;-68
2022/03/28 01:00:19;;;;;;;40.35;16.88;;;9.80;95.40;;;;;;5070404;28;20916;-66
2022/03/28 01:02:46;;;;;;;37.70;17.67;;;9.80;95.50;;;;;;5069163;28;20186;-66
2022/03/28 01:05:13;;;;;;;38.03;17.00;;;9.80;95.60;;;;;;5087304;28;20194;-65
2022/03/28 01:07:40;;;;;;;33.60;16.35;;;9.80;95.70;;;;;;5087950;28;20273;-66
2022/03/28 01:10:10;;;;;;;32.88;15.75;;;9.80;95.80;;;;;;5089193;28;20201;-67
2022/03/28 01:12:37;;;;;;;31.58;13.82;;;9.90;96.00;;;;;;5088453;28;20196;-68
2022/03/28 01:15:04;;;;;;;32.55;15.80;;;9.90;96.10;;;;;;5067967;28;20563;-64
2022/03/28 01:20:15;;;;;;;26.20;14.88;;;9.90;96.20;;;;;;5089218;28;20579;-65
2022/03/28 01:22:40;;;;;;;30.33;15.35;;;9.90;96.30;;;;;;5086714;28;20174;-67
2022/03/28 01:25:07;;;;;;;28.95;15.38;;;9.90;96.30;;;;;;5081678;28;20221;-66
2022/03/28 01:27:36;;;;;;;26.38;13.75;;;10.00;96.40;;;;;;5088907;28;20193;-66
2022/03/28 01:30:04;;;;;;;25.98;15.30;;;10.00;96.50;;;;;;5070557;28;20253;-64
2022/03/28 01:32:30;;;;;;;32.05;15.65;;;10.00;96.70;;;;;;5089655;28;20628;-67
2022/03/28 01:34:56;;;;;;;34.47;16.23;;;10.00;96.70;;;;;;5068745;28;20221;-66
2022/03/28 01:37:22;;;;;;;27.15;15.13;;;10.00;96.80;;;;;;5090309;28;20204;-64
2022/03/28 01:39:47;;;;;;;22.15;14.85;;;9.90;96.80;;;;;;5087606;28;20186;-64
2022/03/28 01:42:13;;;;;;;27.95;15.70;;;9.90;97.20;;;;;;5070513;28;20666;-68
2022/03/28 01:44:38;;;;;;;29.88;16.15;;;9.90;97.00;;;;;;5068704;28;20672;-67
2022/03/28 01:47:04;;;;;;;32.38;17.23;;;9.90;97.10;;;;;;5088306;28;20234;-65
2022/03/28 01:49:31;;;;;;;34.97;17.33;;;9.90;97.10;;;;;;5067815;28;20199;-66
2022/03/28 01:51:56;;;;;;;27.27;17.95;;;9.90;97.20;;;;;;5071894;28;20638;-69
2022/03/28 01:54:22;;;;;;;32.20;18.02;;;9.90;97.30;;;;;;5068578;28;20231;-66
2022/03/28 01:56:48;;;;;;;27.77;16.38;;;9.90;97.30;;;;;;5087903;28;20186;-66
2022/03/28 01:59:14;;;;;;;24.55;15.25;;;9.90;97.40;;;;;;5070374;28;20181;-66
2022/03/28 02:01:40;;;;;;;31.20;17.67;;;9.90;97.50;;;;;;5088533;28;20196;-67
2022/03/28 02:04:05;;;;;;;29.67;18.42;;;9.90;97.60;;;;;;5068841;28;20307;-68
2022/03/28 02:06:34;;;;;;;34.33;19.75;;;9.90;97.60;;;;;;5086528;28;20272;-68
2022/03/28 02:09:00;;;;;;;35.40;20.52;;;9.90;97.60;;;;;;5089515;28;20564;-68
2022/03/28 02:11:26;;;;;;;39.58;21.90;;;9.90;97.70;;;;;;5053709;28;20642;-66
2022/03/28 02:13:51;;;;;;;34.97;21.60;;;9.80;97.70;;;;;;5086576;28;20292;-67
2022/03/28 02:16:17;;;;;;;40.88;21.15;;;9.90;97.80;;;;;;5066630;28;20599;-68
2022/03/28 02:18:43;;;;;;;36.40;21.70;;;9.80;97.80;;;;;;5069649;28;20553;-67
2022/03/28 02:21:09;;;;;;;34.10;21.00;;;9.90;97.90;;;;;;5085887;28;20591;-66
2022/03/28 02:23:34;;;;;;;40.90;21.83;;;9.90;98.00;;;;;;5070550;28;20266;-69
2022/03/28 02:26:00;;;;;;;34.15;20.13;;;9.90;98.00;;;;;;5070327;28;20251;-67
2022/03/28 02:28:26;;;;;;;34.85;20.75;;;9.90;98.10;;;;;;5085176;28;20572;-67
2022/03/28 02:30:53;;;;;;;33.53;19.35;;;9.90;98.10;;;;;;5085802;28;20265;-66
2022/03/28 02:33:19;;;;;;;33.22;18.95;;;9.90;98.10;;;;;;5088172;28;20194;-64
2022/03/28 02:35:46;;;;;;;34.30;18.83;;;9.90;98.20;;;;;;5087591;28;20189;-65
2022/03/28 02:38:12;;;;;;;33.13;19.02;;;9.90;98.30;;;;;;5086343;28;20194;-66
2022/03/28 02:40:37;;;;;;;31.08;18.92;;;9.90;98.30;;;;;;5087169;28;20274;-65
2022/03/28 02:43:04;;;;;;;34.78;19.10;;;9.90;98.30;;;;;;5051928;28;20188;-67
2022/03/28 02:45:32;;;;;;;35.63;19.65;;;9.90;98.40;;;;;;5068145;28;20278;-67
2022/03/28 02:48:01;;;;;;;31.90;18.38;;;9.90;98.40;;;;;;5085512;28;20293;-66
2022/03/28 02:50:29;;;;;;;34.40;19.35;;;9.90;98.40;;;;;;5086050;28;20216;-67
2022/03/28 02:52:55;;;;;;;34.42;19.35;;;9.90;98.50;;;;;;5088068;28;20666;-67
2022/03/28 02:55:21;;;;;;;37.97;21.45;;;9.90;98.50;;;;;;5086243;28;20745;-66
2022/03/28 02:57:47;;;;;;;36.33;20.45;;;9.80;98.50;;;;;;5088267;28;20189;-68
2022/03/28 03:00:13;;;;;;;41.85;21.10;;;9.80;98.50;;;;;;5067883;28;20220;-68
2022/03/28 03:02:40;;;;;;;42.30;22.33;;;9.80;98.50;;;;;;5085989;28;20180;-70
2022/03/28 03:05:07;;;;;;;42.78;23.60;;;9.80;98.60;;;;;;5069019;28;20259;-69
2022/03/28 03:07:32;;;;;;;44.25;22.73;;;9.80;98.70;;;;;;5087385;28;20550;-68
2022/03/28 03:09:58;;;;;;;37.47;21.67;;;9.80;98.70;;;;;;5087284;28;20185;-66
2022/03/28 03:12:24;;;;;;;37.42;20.48;;;9.80;98.70;;;;;;5086877;28;20186;-66
2022/03/28 03:14:51;;;;;;;40.70;21.90;;;9.70;98.70;;;;;;5068727;28;20280;-68
2022/03/28 03:17:16;;;;;;;38.47;22.02;;;9.80;98.80;;;;;;5086295;28;20228;-67
2022/03/28 03:19:43;;;;;;;39.00;21.38;;;9.70;98.80;;;;;;5083860;28;21728;-69
2022/03/28 03:22:09;;;;;;;;;;;9.70;98.90;;;;;;5088654;28;20707;-70
2022/03/28 03:24:35;;;;;;;;;;;9.70;99.00;;;;;;5083515;28;19971;-65
2022/03/28 03:27:00;;;;;;;;;;;9.70;99.00;;;;;;5070354;28;20041;-67
2022/03/28 03:29:26;;;;;;;;;;;9.70;99.00;;;;;;5085323;28;20007;-67
2022/03/28 03:31:52;;;;;;;;;;;9.70;99.00;;;;;;5083998;28;19986;-66
2022/03/28 03:34:18;;;;;;;;;;;9.60;99.10;;;;;;5069171;28;20296;-68
2022/03/28 03:36:44;;;;;;;;;;;9.60;99.10;;;;;;5087742;28;19939;-67
2022/03/28 03:39:10;;;;;;;;;;;9.60;99.10;;;;;;5087790;28;19942;-69
2022/03/28 03:41:35;;;;;;;;;;;9.60;99.20;;;;;;5084338;28;20448;-69
2022/03/28 03:44:01;;;;;;;;;;;9.60;99.30;;;;;;5088535;28;20006;-69
2022/03/28 03:46:26;;;;;;;;;;;9.60;99.30;;;;;;5086685;28;20371;-67
2022/03/28 03:48:52;;;;;;;;;;;9.60;99.30;;;;;;5068109;28;19949;-69
2022/03/28 03:51:18;;;;;;;;;;;9.60;99.30;;;;;;5086558;28;20594;-67
2022/03/28 03:53:43;;;;;;;;;;;9.60;99.40;;;;;;5086534;28;19919;-69
2022/03/28 03:56:09;;;;;;;;;;;9.60;99.40;;;;;;5068495;28;19942;-68
2022/03/28 03:58:34;;;;;;;;;;;9.50;99.40;;;;;;5086957;28;19926;-67
2022/03/28 04:01:00;;;;;;;;;;;9.50;99.40;;;;;;5068256;28;20361;-68
2022/03/28 04:03:25;;;;;;;;;;;9.50;99.50;;;;;;5067988;28;19915;-66
2022/03/28 04:05:51;;;;;;;;;;;9.50;99.50;;;;;;5084968;28;20001;-71
2022/03/28 04:08:16;;;;;;;;;;;9.50;99.60;;;;;;5088629;28;19953;-70
2022/03/28 04:10:45;;;;;;;;;;;9.50;99.60;;;;;;5086412;28;20323;-68
2022/03/28 04:13:10;;;;;;;;;;;9.50;99.70;;;;;;5068468;28;19993;-67
2022/03/28 04:15:37;;;;;;;;;;;9.50;99.70;;;;;;5085614;28;19959;-67
2022/03/28 04:18:02;;;;;;;;;;;9.50;99.80;;;;;;5082890;28;19908;-66
2022/03/28 04:20:32;;;;;;;;;;;9.40;99.70;;;;;;5085710;28;19915;-67
2022/03/28 04:22:58;;;;;;;;;;;9.40;99.80;;;;;;5085930;28;19908;-68
2022/03/28 04:25:23;;;;;;;;;;;9.40;99.80;;;;;;5085307;28;20008;-70
2022/03/28 04:27:49;;;;;;;;;;;9.40;99.80;;;;;;5069789;28;20076;-66
2022/03/28 04:30:15;;;;;;;;;;;9.40;99.90;;;;;;5052296;28;19919;-67
2022/03/28 04:32:41;;;;;;;;;;;9.40;99.90;;;;;;5087895;28;20057;-68
2022/03/28 04:35:07;;;;;;;;;;;9.40;99.90;;;;;;5084965;28;19947;-69
2022/03/28 04:37:33;;;;;;;;;;;9.40;99.90;;;;;;5053610;28;19908;-67
2022/03/28 04:39:59;;;;;;;;;;;9.40;99.90;;;;;;5086021;28;19951;-66
2022/03/28 04:42:25;;;;;;;;;;;9.40;99.90;;;;;;5071697;28;19959;-68
2022/03/28 04:44:50;;;;;;;;;;;9.40;99.90;;;;;;5087102;28;19912;-67
2022/03/28 04:47:16;;;;;;;;;;;9.40;99.90;;;;;;5091343;28;19915;-67
2022/03/28 04:49:41;;;;;;;;;;;9.30;99.90;;;;;;5068116;28;19935;-66
2022/03/28 04:52:07;;;;;;;;;;;9.30;99.90;;;;;;5071108;28;19916;-67
2022/03/28 04:54:33;;;;;;;;;;;9.30;99.90;;;;;;5088245;28;19914;-67
2022/03/28 04:56:58;;;;;;;;;;;9.30;99.90;;;;;;5084098;28;19916;-68
2022/03/28 04:59:24;;;;;;;;;;;9.30;99.90;;;;;;5053035;28;19908;-69
2022/03/28 05:01:50;;;;;;;;;;;9.30;99.90;;;;;;5069056;28;19916;-69
2022/03/28 05:04:16;;;;;;;;;;;9.30;99.90;;;;;;5086328;28;19911;-68
2022/03/28 05:06:41;;;;;;;;;;;9.30;99.90;;;;;;5052463;28;19986;-69
2022/03/28 05:09:07;;;;;;;;;;;9.20;99.90;;;;;;5088892;28;19918;-70
2022/03/28 05:11:33;;;;;;;;;;;9.20;99.90;;;;;;5069682;28;19912;-68
2022/03/28 05:14:00;;;;;;;;;;;9.20;99.90;;;;;;5089201;28;19966;-68
2022/03/28 05:16:26;;;;;;;;;;;9.20;99.90;;;;;;5071432;28;20035;-68
2022/03/28 05:18:52;;;;;;;;;;;9.20;99.90;;;;;;5088266;28;19935;-68
2022/03/28 05:21:17;;;;;;;;;;;9.20;99.90;;;;;;5088033;28;19955;-68
2022/03/28 05:23:44;;;;;;;;;;;9.20;99.90;;;;;;5070510;28;20273;-68
2022/03/28 05:26:09;;;;;;;;;;;9.20;99.90;;;;;;5067096;28;20271;-68
2022/03/28 05:28:35;;;;;;;;;;;9.20;99.90;;;;;;5083018;28;19995;-68
2022/03/28 05:31:00;;;;;;;;;;;9.20;99.90;;;;;;5087470;28;19938;-67
2022/03/28 05:33:26;;;;;;;;;;;9.20;99.90;;;;;;5088364;28;19955;-68
2022/03/28 05:35:52;;;;;;;;;;;9.20;99.90;;;;;;5065420;28;19923;-69
2022/03/28 05:38:18;;;;;;;;;;;9.20;99.90;;;;;;5086050;28;19907;-67
2022/03/28 05:40:43;;;;;;;;;;;9.20;99.90;;;;;;5070629;28;20340;-67
2022/03/28 05:43:09;;;;;;;;;;;9.20;99.90;;;;;;5088409;28;19954;-67
2022/03/28 05:45:36;;;;;;;;;;;9.20;99.90;;;;;;5089293;28;19935;-68
2022/03/28 05:48:01;;;;;;;;;;;9.20;99.90;;;;;;5084278;28;19931;-69
2022/03/28 05:50:27;;;;;;;;;;;9.20;99.90;;;;;;5088441;28;20360;-68
2022/03/28 05:52:54;;;;;;;;;;;9.20;99.90;;;;;;5071370;28;19920;-69
2022/03/28 05:55:20;;;;;;;;;;;9.20;99.90;;;;;;5068894;28;20735;-68
2022/03/28 05:57:46;;;;;;;;;;;9.20;99.90;;;;;;5054012;28;20884;-68
2022/03/28 06:00:13;;;;;;;;;;;9.20;99.90;;;;;;5088437;28;19944;-68
2022/03/28 06:02:39;;;;;;;;;;;9.20;99.90;;;;;;5088399;28;19911;-66
2022/03/28 06:05:06;;;;;;;;;;;9.20;99.90;;;;;;5087380;28;20444;-67
2022/03/28 06:07:31;;;;;;;;;;;9.20;99.90;;;;;;5087557;28;20424;-68
2022/03/28 06:09:57;;;;;;;;;;;9.20;99.90;;;;;;5087221;28;19999;-68
2022/03/28 06:12:23;;;;;;;;;;;9.20;99.90;;;;;;5085983;28;20250;-67
2022/03/28 06:14:49;;;;;;;;;;;9.20;99.90;;;;;;5070555;28;19931;-68
2022/03/28 06:17:24;;;;;;;;;;;9.20;99.90;;;;;;5088060;28;20373;-70
2022/03/28 06:19:50;;;;;;;;;;;9.20;99.90;;;;;;5086647;28;19926;-68
2022/03/28 06:22:16;;;;;;;;;;;9.20;99.90;;;;;;5088264;28;19916;-67
2022/03/28 06:24:41;;;;;;;;;;;9.20;99.90;;;;;;5088548;28;19916;-67
2022/03/28 06:27:07;;;;;;;;;;;9.20;99.90;;;;;;5070806;28;19972;-68
2022/03/28 06:29:33;;;;;;;;;;;9.20;99.90;;;;;;5088081;28;19935;-67
2022/03/28 06:31:58;;;;;;;;;;;9.20;99.90;;;;;;5082447;28;19908;-69
2022/03/28 06:34:24;;;;;;;;;;;9.20;99.90;;;;;;5087890;28;19933;-67
2022/03/28 06:36:50;;;;;;;;;;;9.20;99.90;;;;;;5086936;28;19908;-66
2022/03/28 06:39:15;;;;;;;;;;;9.20;99.90;;;;;;5087171;28;19915;-68
2022/03/28 06:41:41;;;;;;;;;;;9.20;99.90;;;;;;5086941;28;20288;-67
2022/03/28 06:44:11;;;;;;;;;;;9.20;99.90;;;;;;5086691;28;20018;-69
2022/03/28 06:46:37;;;;;;;;;;;9.70;99.90;;;;;;5087082;28;19912;-68
2022/03/28 06:49:03;;;;;;;;;;;9.60;99.90;;;;;;5066747;28;19915;-69
2022/03/28 06:51:29;;;;;;;;;;;9.50;99.90;;;;;;5080871;28;19990;-68
2022/03/28 06:53:54;;;;;;;;;;;9.40;99.90;;;;;;5069774;28;20261;-68
2022/03/28 06:56:20;;;;;;;;;;;9.40;99.90;;;;;;5069865;28;19919;-67
2022/03/28 06:58:45;;;;;;;;;;;9.30;99.90;;;;;;5087941;28;19916;-65
2022/03/28 07:01:11;;;;;;;;;;;9.30;99.90;;;;;;5087229;28;19959;-67
2022/03/28 07:03:37;;;;;;;;;;;9.30;99.90;;;;;;5088439;28;19995;-67
2022/03/28 07:06:03;;;;;;;;;;;9.30;99.90;;;;;;5086941;28;20270;-67
2022/03/28 07:08:29;;;;;;;;;;;9.30;99.90;;;;;;5070092;28;19984;-67
2022/03/28 07:10:55;;;;;;;;;;;9.30;99.90;;;;;;5068495;28;19908;-65
2022/03/28 07:13:22;;;;;;;;;;;9.30;99.90;;;;;;5082366;28;19919;-67
2022/03/28 07:15:48;;;;;;;;;;;9.30;99.90;;;;;;5078827;28;20523;-66
2022/03/28 07:18:13;;;;;;;;;;;9.30;99.90;;;;;;5084418;28;19994;-66
2022/03/28 07:20:39;;;;;;;;;;;9.40;99.90;;;;;;5085678;28;20369;-67
2022/03/28 07:23:06;;;;;;;;;;;9.40;99.90;;;;;;5086149;28;20006;-67
2022/03/28 07:25:32;;;;;;;;;;;9.40;99.90;;;;;;5064814;28;20390;-67
2022/03/28 07:27:57;;;;;;;;;;;9.40;99.90;;;;;;5059928;28;19912;-67
2022/03/28 07:30:23;;;;;;;;;;;9.40;99.90;;;;;;5064073;28;19915;-67
2022/03/28 07:32:52;;;;;;;;;;;9.40;99.90;;;;;;5082799;28;20368;-68
2022/03/28 07:35:19;;;;;;;;;;;9.50;99.90;;;;;;5077020;28;20301;-67
2022/03/28 07:37:44;;;;;;;;;;;9.50;99.90;;;;;;5082254;28;20345;-66
2022/03/28 07:40:10;;;;;;;;;;;9.50;99.90;;;;;;5082355;28;20093;-67
2022/03/28 07:42:37;;;;;;;;;;;9.50;99.90;;;;;;5084182;28;19912;-66
2022/03/28 07:45:05;;;;;;;;;;;9.50;99.90;;;;;;5082907;28;19915;-67
2022/03/28 07:47:31;;;;;;;;;;;9.60;99.90;;;;;;5087124;28;19912;-67
2022/03/28 07:49:58;;;;;;;;;;;9.50;99.90;;;;;;5069611;28;19931;-66
2022/03/28 07:52:24;;;;;;;;;;;9.50;99.90;;;;;;5086201;28;19999;-66
2022/03/28 07:54:50;;;;;;;;;;;9.50;99.90;;;;;;5068802;28;20092;-66
2022/03/28 07:57:16;;;;;;;;;;;9.50;99.90;;;;;;5087220;28;20368;-66
2022/03/28 07:59:42;;;;;;;;;;;9.50;99.90;;;;;;5081962;28;19973;-67
2022/03/28 08:02:09;;;;;;;;;;;9.60;99.90;;;;;;5086352;28;20045;-65
2022/03/28 08:04:36;;;;;;;;;;;9.60;99.90;;;;;;5081842;28;19916;-65
2022/03/28 08:07:05;;;;;;;;;;;9.70;99.90;;;;;;5086437;28;19912;-67
2022/03/28 08:09:30;;;;;;;;;;;9.70;99.90;;;;;;5085974;28;19969;-66
2022/03/28 08:11:56;;;;;;;;;;;9.70;99.90;;;;;;5070721;28;19912;-66
2022/03/28 08:14:22;;;;;;;;;;;9.80;99.90;;;;;;5085958;28;19912;-66
2022/03/28 08:16:49;;;;;;;;;;;9.80;99.90;;;;;;5090879;28;19931;-66
2022/03/28 08:19:14;;;;;;;;;;;9.80;99.90;;;;;;5091932;28;19922;-67
2022/03/28 08:21:41;;;;;;;;;;;9.90;99.90;;;;;;5085457;28;20369;-66
2022/03/28 08:24:06;;;;;;;;;;;9.90;99.90;;;;;;5089371;28;19963;-66
2022/03/28 08:26:32;;;;;;;;;;;9.90;99.90;;;;;;5070509;28;20001;-66
2022/03/28 08:28:57;;;;;;;;;;;10.00;99.90;;;;;;5086137;28;20397;-65
2022/03/28 08:31:23;;;;;;;;;;;10.00;99.90;;;;;;5088288;28;19912;-67
2022/03/28 08:33:48;;;;;;;;;;;10.00;99.90;;;;;;5090538;28;19915;-66
2022/03/28 08:36:14;;;;;;;;;;;10.10;99.90;;;;;;5089170;28;19915;-66
2022/03/28 08:38:39;;;;;;;;;;;10.10;99.90;;;;;;5070123;28;19916;-66
2022/03/28 08:41:11;;;;;;;;;;;10.10;99.90;;;;;;5066560;28;19985;-66
2022/03/28 08:43:37;;;;;;;;;;;10.10;99.90;;;;;;5087070;28;19911;-66
2022/03/28 08:46:04;;;;;;;;;;;10.20;99.90;;;;;;5085322;28;20743;-66
2022/03/28 08:48:33;;;;;;;;;;;10.20;99.90;;;;;;5091293;28;19920;-67
2022/03/28 08:50:59;;;;;;;;;;;10.20;99.90;;;;;;5071569;28;19912;-68
2022/03/28 08:53:24;;;;;;;;;;;10.30;99.90;;;;;;5088697;28;19923;-66
2022/03/28 08:55:50;;;;;;;;;;;10.30;99.90;;;;;;5088018;28;19944;-68
2022/03/28 08:58:15;;;;;;;;;;;10.30;99.90;;;;;;5073173;28;20007;-67
2022/03/28 09:00:42;;;;;;;;;;;10.40;99.90;;;;;;5071168;28;19966;-66
2022/03/28 09:03:07;;;;;;;;;;;10.40;99.90;;;;;;5088182;28;20372;-67
2022/03/28 09:05:38;;;;;;;;;;;10.40;99.90;;;;;;5068888;28;19904;-66
2022/03/28 09:08:05;;;;;;;;;;;10.50;99.90;;;;;;5083248;28;19919;-67
2022/03/28 09:10:32;;;;;;;;;;;10.50;99.90;;;;;;5072923;28;20435;-67
2022/03/28 09:12:58;;;;;;;;;;;10.50;99.90;;;;;;5069353;28;19954;-67
2022/03/28 09:15:23;;;;;;;;;;;10.60;99.90;;;;;;5070659;28;19943;-66
2022/03/28 09:17:56;;;;;;;;;;;10.60;99.90;;;;;;5085323;28;19915;-66
2022/03/28 09:20:22;;;;;;;;;;;10.60;99.90;;;;;;5071105;28;19955;-65
2022/03/28 09:22:49;;;;;;;;;;;10.60;99.90;;;;;;5086953;28;19916;-66
2022/03/28 09:25:16;;;;;;;;;;;10.60;99.90;;;;;;5088779;28;19962;-67
2022/03/28 09:27:44;;;;;;;;;;;10.60;99.90;;;;;;5088813;28;19908;-66
2022/03/28 09:30:17;;;;;;;;;;;10.70;99.90;;;;;;5090193;28;20396;-74
2022/03/28 09:32:43;;;;;;;;;;;10.80;99.90;;;;;;5061502;28;20579;-69
2022/03/28 09:35:12;;;;;;;;;;;10.90;99.90;;;;;;5069044;28;19915;-69
2022/03/28 09:37:47;;;;;;;;;;;10.90;99.90;;;;;;5070742;28;19916;-70
2022/03/28 09:40:29;;;;;;;;;;;11.00;99.90;;;;;;5086577;28;19923;-71
2022/03/28 09:42:56;;;;;;;;;;;11.20;99.90;;;;;;5070535;28;20347;-70
2022/03/28 09:45:23;;;;;;;;;;;11.20;99.90;;;;;;5069901;28;20060;-71
2022/03/28 09:48:22;;;;;;;;;;;11.40;99.90;;;;;;5086324;28;19913;-70
2022/03/28 09:50:49;;;;;;;;;;;11.50;99.90;;;;;;5016183;28;19908;-70
2022/03/28 09:53:24;;;;;;;;;;;11.60;99.90;;;;;;5068332;28;19908;-70
2022/03/28 09:56:01;;;;;;;;;;;11.70;99.90;;;;;;5089044;28;19916;-72
2022/03/28 09:58:30;;;;;;;;;;;12.70;99.90;;;;;;5083303;28;20400;-69
2022/03/28 10:00:56;;;;;;;47.63;24.13;;;14.30;96.80;;;;;;5087328;28;20670;-69
2022/03/28 10:03:23;;;;;;;46.30;24.52;;;14.40;97.70;;;;;;5070303;28;20261;-68
2022/03/28 10:05:49;;;;;;;41.92;23.15;;;14.60;98.10;;;;;;5088694;28;20242;-69
2022/03/28 10:08:15;;;;;;;;;;;15.00;97.90;;;;;;5087035;28;20063;-69
2022/03/28 10:10:41;;;;;;;46.00;25.10;;;15.40;97.80;;;;;;5088315;28;20026;-69
2022/03/28 10:13:07;;;;;;;48.58;25.80;;;16.00;97.30;;;;;;5082729;28;20186;-69
2022/03/28 10:15:32;;;;;;;43.78;24.73;;;16.60;96.30;;;;;;5068880;28;20194;-68
2022/03/28 10:17:58;;;;;;;45.38;24.38;;;17.00;94.80;;;;;;5084689;28;20194;-69
2022/03/28 10:20:25;;;;;;;40.58;22.92;;;17.20;93.40;;;;;;5071635;28;20693;-70
2022/03/28 10:22:54;;;;;;;49.22;23.80;;;17.20;92.30;;;;;;5086596;28;20567;-69
2022/03/28 10:25:22;;;;;;;44.10;25.02;;;17.10;91.40;;;;;;5088771;28;20229;-69
2022/03/28 10:27:51;;;;;;;39.95;22.83;;;17.00;91.00;;;;;;5064815;28;20186;-69
2022/03/28 10:30:24;;;;;;;46.50;23.02;;;17.00;90.80;;;;;;5089547;28;20658;-70
2022/03/28 10:33:09;;;;;;;;;;;17.20;90.80;;;;;;5053404;28;20044;-70
2022/03/28 10:35:35;;;;;;;;;;;17.70;91.50;;;;;;5089680;28;20351;-69
2022/03/28 10:38:13;;;;;;;;;;;18.50;92.00;;;;;;5066772;28;19916;-69
2022/03/28 10:40:52;;;;;;;;;;;19.30;92.10;;;;;;5059879;28;19938;-70
2022/03/28 10:43:18;;;;;;;;;;;20.20;91.60;;;;;;5084522;28;20443;-71
2022/03/28 10:45:50;;;;;;;;;;;21.00;91.60;;;;;;5085752;28;20007;-70
2022/03/28 10:48:16;;;;;;;;;;;21.60;91.70;;;;;;5069896;28;20035;-69
2022/03/28 10:50:42;;;;;;;;;;;22.20;91.60;;;;;;5067574;28;20332;-71
2022/03/28 10:53:12;;;;;;;;;;;22.70;91.60;;;;;;5086717;28;19948;-71
2022/03/28 10:55:50;;;;;;;;;;;23.10;91.60;;;;;;5088403;28;19908;-70
2022/03/28 10:58:16;;;;;;;;;;;23.50;91.20;;;;;;5086969;28;19912;-70
2022/03/28 11:01:01;;;;;;;;;;;23.80;91.20;;;;;;5085798;28;20431;-71
2022/03/28 11:03:53;;;;;;;;;;;24.00;90.90;;;;;;5071149;28;20722;-72
2022/03/28 11:06:37;;;;;;;;;;;24.40;90.30;;;;;;5082829;28;19912;-71
2022/03/28 11:09:03;;;;;;;;;;;24.60;90.00;;;;;;5088360;28;19912;-72
2022/03/28 11:11:32;;;;;;;;;;;24.80;88.00;;;;;;5067528;28;19976;-71
2022/03/28 11:13:58;;;;;;;;;;;25.00;87.50;;;;;;5088937;28;19915;-71
2022/03/28 11:16:40;;;;;;;;;;;25.20;86.20;;;;;;5068673;28;19916;-71
2022/03/28 11:19:21;;;;;;;;;;;25.20;81.70;;;;;;5069350;28;19947;-71
2022/03/28 11:21:56;;;;;;;;;;;25.20;84.70;;;;;;5085784;28;19981;-71
2022/03/28 11:24:41;;;;;;;;;;;25.10;83.90;;;;;;5086028;28;19934;-71
2022/03/28 11:27:07;;;;;;;;;;;25.20;82.80;;;;;;5068253;28;19908;-68
2022/03/28 11:29:33;;;;;;;;;;;25.30;80.80;;;;;;5086421;28;19908;-68
2022/03/28 11:32:03;;;;;;;;;;;25.20;79.80;;;;;;5051209;28;19920;-68
2022/03/28 11:34:29;;;;;;;;;;;25.20;77.00;;;;;;5087518;28;19908;-68
2022/03/28 11:36:58;;;;;;;;;;;25.10;76.80;;;;;;5065186;28;19915;-69
2022/03/28 11:39:26;;;;;;;;;;;25.10;75.80;;;;;;5088458;28;19904;-69
2022/03/28 11:41:52;;;;;;;;;;;25.20;75.90;;;;;;5084259;28;19919;-68
2022/03/28 11:44:18;;;;;;;;;;;25.00;72.90;;;;;;5087171;28;19958;-68
2022/03/28 11:46:52;;;;;;;;;;;24.80;71.30;;;;;;5084275;28;19908;-69
2022/03/28 11:49:18;;;;;;;;;;;24.60;75.10;;;;;;5069539;28;19908;-69
2022/03/28 11:51:44;;;;;;;;;;;24.60;75.60;;;;;;5086466;28;19915;-70
2022/03/28 11:54:12;;;;;;;;;;;24.50;75.00;;;;;;5088066;28;19923;-69
2022/03/28 11:58:14;;;;;;;;;;;24.50;75.10;;;;;;5066359;28;19936;-70
2022/03/28 11:59:28;;;;;;;;;;;24.40;75.90;;;;;;5088357;28;20290;-69
2022/03/28 12:02:01;;;;;;;;;;;24.20;73.60;;;;;;5085571;28;19916;-69
2022/03/28 12:04:27;;;;;;;;;;;24.10;74.00;;;;;;5069146;28;19919;-69
2022/03/28 12:06:53;;;;;;;;;;;24.10;74.10;;;;;;5087304;28;20339;-69
2022/03/28 12:09:23;;;;;;;;;;;24.10;75.80;;;;;;5088535;28;19965;-69
2022/03/28 12:11:49;;;;;;;;;;;24.00;73.80;;;;;;5085360;28;20293;-69
2022/03/28 12:14:15;;;;;;;;;;;24.00;71.10;;;;;;5085545;28;19938;-70
2022/03/28 12:16:48;;;;;;;;;;;24.00;72.90;;;;;;5086558;28;19917;-69
2022/03/28 12:19:21;;;;;;;;;;;24.00;73.80;;;;;;5069959;28;19908;-69
2022/03/28 12:21:47;;;;;;;;;;;24.00;74.10;;;;;;5064480;28;19916;-70
2022/03/28 12:24:12;;;;;;;;;;;23.90;71.30;;;;;;5087823;28;19951;-68
2022/03/28 12:26:45;;;;;;;;;;;23.90;71.80;;;;;;5087172;28;20296;-70
2022/03/28 12:29:13;;;;;;;;;;;23.80;70.50;;;;;;5087362;28;19908;-70
2022/03/28 12:31:42;;;;;;;;;;;23.70;72.30;;;;;;5086790;28;19916;-70
2022/03/28 12:34:08;;;;;;;;;;;23.50;67.20;;;;;;5087734;28;20380;-69
2022/03/28 12:36:35;;;;;;;;;;;23.30;69.60;;;;;;5067500;28;19908;-68
2022/03/28 12:39:04;;;;;;;;;;;23.30;71.60;;;;;;5068055;28;19908;-68
2022/03/28 12:41:30;;;;;;;;;;;23.30;72.10;;;;;;5086760;28;19912;-69
2022/03/28 12:43:56;;;;;;;;;;;23.30;69.40;;;;;;5085763;28;19995;-67
2022/03/28 12:46:22;;;;;;;;;;;23.30;71.70;;;;;;5080881;28;19909;-68
2022/03/28 12:48:51;;;;;;;;;;;23.30;71.50;;;;;;5085836;28;19908;-67
2022/03/28 12:51:35;;;;;;;;;;;23.20;71.90;;;;;;5082243;28;19912;-67
2022/03/28 12:54:05;;;;;;;;;;;23.20;68.50;;;;;;5086170;28;19934;-67
2022/03/28 12:56:44;;;;;;;;;;;23.20;69.60;;;;;;5087420;28;19912;-67
2022/03/28 12:59:11;;;;;;;24.13;14.02;;;23.00;69.60;;;;;;5090229;28;20198;-68
2022/03/28 13:01:36;;;;;;;26.02;13.25;;;23.00;70.60;;;;;;5091059;28;20206;-69
2022/03/28 13:04:09;;;;;;;25.48;14.55;;;22.90;66.70;;;;;;5069763;28;20189;-67
2022/03/28 13:06:38;;;;;;;22.42;13.20;;;22.70;63.90;;;;;;5089002;28;20676;-68
2022/03/28 13:09:04;;;;;;;24.70;12.55;;;22.60;62.70;;;;;;5071985;28;20186;-68
2022/03/28 13:11:32;;;;;;;24.55;12.60;;;22.60;61.50;;;;;;5088473;28;20189;-68
2022/03/28 13:13:58;;;;;;;25.70;13.38;;;22.60;60.40;;;;;;5072239;28;20211;-68
2022/03/28 13:16:25;;;;;;;26.13;13.18;;;22.60;59.90;;;;;;5090953;28;20181;-67
2022/03/28 13:19:02;;;;;;;26.08;14.05;;;22.60;59.40;;;;;;5088567;28;20193;-68
2022/03/28 13:21:29;;;;;;;26.48;12.93;;;22.60;58.80;;;;;;5086103;28;20201;-68
2022/03/28 13:24:06;;;;;;;33.03;14.77;;;22.70;58.30;;;;;;5072479;28;20226;-68
2022/03/28 13:26:44;;;;;;;27.50;15.35;;;22.70;57.70;;;;;;5070639;28;20276;-68
2022/03/28 13:29:23;;;;;;;29.95;15.02;;;22.80;57.30;;;;;;5051833;28;20319;-68
2022/03/28 13:31:49;;;;;;;25.63;14.68;;;22.80;57.00;;;;;;5087259;28;20214;-68
2022/03/28 13:34:15;;;;;;;27.30;15.30;;;22.80;57.40;;;;;;5087396;28;20808;-67
2022/03/28 13:36:41;;;;;;;28.52;15.07;;;23.60;52.20;;;;;;5069561;28;20435;-68
2022/03/28 13:39:08;;;;;;;28.23;15.48;;;23.90;50.30;;;;;;5087709;28;20417;-67
2022/03/28 13:41:34;;;;;;;30.60;15.40;;;24.00;49.90;;;;;;5089371;28;20418;-67
2022/03/28 13:44:02;;;;;;;25.60;15.50;;;24.00;48.70;;;;;;5070426;28;20454;-67
2022/03/28 13:46:31;;;;;;;27.33;15.55;;;24.00;49.40;;;;;;5070986;28;20436;-67
2022/03/28 13:48:58;;;;;;;27.27;15.50;;;24.10;48.90;;;;;;5088083;28;20414;-68